MMAA/ACA METAR and TAF weather

Enter ICAO airport designator
Station Type Date Time Source
MMAA METAR 2019/06/17 14:47 UTC NOAA

MMAA 171447Z 36004KT 8SM FEW300 30/23 A2987 RMK SLP115 52022 956 8/002 HZY ISOL AC


Station Type Date Time Source
MMAA Decoded METAR 2019/06/17 14:47 UTC NOAA

Acapulco / G. Alvarez, Mexico (MMAA) 16-46N 099-45W
Jun 17, 2019 - 10:47 AM EDT / 2019.06.17 1447 UTC
Wind: from the N (360 degrees) at 5 MPH (4 KT):0
Visibility: 8 mile(s):0
Sky conditions: mostly clear
Temperature: 86 F (30 C)
Heat index: 93.4 F (34.1 C):1
Dew Point: 73 F (23 C)
Relative Humidity: 66%
Pressure (altimeter): 29.87 in. Hg (1011 hPa)
Pressure tendency: 0.06 inches (2.2 hPa) higher than three hours ago
ob: MMAA 171447Z 36004KT 8SM FEW300 30/23 A2987 RMK SLP115 52022 956 8/002 HZY ISOL AC
cycle: 15

Station Type Date Time Source
MMAA TAF 2019/06/17 12:07 UTC NOAA

TAF MMAA 171000Z 1712/1818 33004KT 5SM HZ SCT100 SCT300 TX33/1719Z TN27/1712Z
FM171800 22008KT P6SM SCT020 SCT090 BKN250
FM180600 00000KT P6SM SCT090 SCT250
BECMG 1810/1812 03005KT

Example: see airport list